Aérodrome :
LOGIN :

S'inscrire | Disclaimer

   EN    FR    IT 

 










Légende :    VFR   VFR Marginal   IFR   IFR Intensif   IFR Très Intensif
Visi : 
Plafond : 
>= 8 km
>= 3000ft
5 à 8 km
1000 à 3000 ft
1500m à 5 km
500 à 1000 ft
800 à 1500m
200 à 500 ft
< 800m
< 200 ft
Symboles :   Orages  Brouillard  Fortes neiges  Fortes précipitations  Vent > 20 kt
SIGMETs :   Divers  Orages  Givrage  Turbulence  Onde Orograph.  Cendres Volcan.







- Altitude de l'aérodrome : 1830 ft


EBLB - Butgenbach Elsenborn

DERNIER METAR :
  • 230755Z AUTO 23006KT 9999 OVC012/// 16/13 Q1018 GRN

METARs EXPIRÉS :
  • 230725Z AUTO 23005KT 9999 OVC012/// 15/13 Q1018 GRN
  • 230655Z AUTO 24005KT 9999 SCT009/// OVC026/// 15/13 Q1017 GRN
  • 230625Z AUTO 23006KT 9999 SCT008/// OVC026/// 15/12 Q1017 GRN
  • 230555Z AUTO 24006KT 9999 BKN007/// BKN024/// 14/12 Q1017 GRN
  • 230544Z AUTO 24006KT 9999 SCT007/// BKN024/// 14/12 Q1017 GRN
  • 230525Z AUTO 25005KT 9999 FEW006/// BKN024/// 14/12 Q1017 WHT

Prévision TAF périmée.
Pas de NOTAMs connus pour ce terrain.



MET'MAP, la Météo Aéronautique d'un coup d'oeil ! - Copyright ORBIFLY Décembre 2007 - Disclaimer

ORBIFLY MET'MAP TEAM :

Programmation & Développement : Alexandra Zaïnal
Conception & Développement : Baudouin d'Aumeries
Co-Programmation & Développement : Marc-Olivier Méhu
Soutien technique & logistique : Manuel Goepfert

Contact : metmap@orbifly.com




SOURCES & CREDITS :

   NOAA